World of Logs combat log analyzer allows gamers to save, share and analyze their raiding experiences conveniently and thoroughly in the Blizzard MMO World of Warcraft. If you're new here, make sure you check out the tour for a 1 minute introduction. If you have any questions, we're happy to answer them on the forums.

DPS HPS
Odyn
Helya
Guarm
Reports for Valiona & Theralion - statistics
# Date Time Damage DPS Guild Realm
1 23 Apr 2012 00:23 2.81M 120148.5 Coon and friends US-Stormrage
2 04 Mar 2012 00:27 3.36M 120616.9 Local Talent EU-Al'Akir
3 05 Jul 2012 00:30 3.43M 112635.8 Logs EU-Zenedar
4 04 Apr 2012 00:31 1.25M 40083.6 Regime US-Arygos
5 04 Apr 2012 00:31 1.25M 40004.2 <Regime> MANG US-Arygos
6 04 Apr 2012 00:31 1.31M 41952.7 Zax US-Arygos
7 29 Mar 2012 00:33 1.97M 58355.9 Cistara's Logs US-Illidan
8 11 Mar 2012 00:33 4.78M 141143.9 Eternal Reign US-Lightbringer
9 28 Aug 2012 00:42 4.03M 94319.4 Friends of Old US-The Forgotten Coast
10 06 Aug 2013 00:43 48.11M 1101089.3 Bonnie and Clyde EU-Area 52
11 01 Mar 2012 00:48 25.85M 532013.5 Apex EU-Al'Akir
12 01 Mar 2012 00:48 25.85M 531958.8 Apex EU-Al'Akir
13 19 Jun 2012 00:51 25.82M 502729.5 The Feral Aggressors US-Bronzebeard
14 31 May 2012 00:54 4.72M 86357.8 Nevermore EU-Silvermoon
15 01 Jul 2012 00:55 25.77M 465813.0 Despotism US-Greymane
16 08 Jul 2012 00:55 25.79M 463367.0 Challenge Accepted [H] US-Quel'dorei
17 08 Jul 2012 00:55 25.79M 463358.7 Devah's Logs US-Illidan
18 15 Apr 2012 00:55 25.90M 464015.2 Reckless EU-Frostwolf
19 10 Apr 2013 00:56 78.44M 1390090.0 Trivial US-Hyjal
20 22 Aug 2012 00:56 3.74M 66044.9 Awakened US-Mal'Ganis
21 19 Apr 2012 00:58 25.80M 437672.6 piss US-Mal'Ganis
22 19 Apr 2012 00:58 25.80M 437524.2 Myrica's Logs US-Mal'Ganis
23 20 May 2012 00:59 5.39M 91038.4 Welcome to Narnia EU-Ясеневый лес
24 09 May 2012 01:00 25.76M 425504.7 Outlandish US-Velen
25 25 Apr 2012 01:00 25.79M 424545.2 Coon and friends US-Stormrage
26 25 Apr 2012 01:00 25.79M 424189.0 DreamON! US-Area 52
27 15 Jul 2012 01:00 25.78M 423020.1 "М И Б" 87 EU-Черный Шрам
28 13 Jul 2012 01:02 23.74M 382766.8 Логи, только Анфори EU-Ревущий фьорд
29 04 May 2012 01:02 25.78M 412754.3 Coon and friends US-Stormrage
30 04 May 2012 01:02 25.78M 412542.9 DreamON! US-Area 52
31 21 May 2012 01:03 25.76M 408815.9 Avalon Tarde EU-Exodar
32 02 Jul 2012 01:03 25.81M 407902.3 Harbinger EU-Wrathbringer
33 17 Jun 2012 01:03 25.84M 407006.3 Pillow Fort US-Wildhammer
34 26 Jul 2012 01:03 25.78M 403194.3 Gordita EU-Свежеватель Душ
35 26 Feb 2012 01:04 6.63M 102893.8 Sparkling Adventures US-Moon Guard
36 06 May 2012 01:04 25.79M 399805.3 Avalon Tarde EU-Exodar
37 04 Aug 2012 01:04 25.79M 397045.5 TakkaZJ US-Zul'jin
38 29 Jul 2012 01:05 25.89M 397973.9 SevereWar! EU-Термоштепсель
39 04 Mar 2012 01:05 25.84M 397007.3 Alucard Privat Log EU-Nera'thor
40 22 Feb 2012 01:05 5.29M 81158.4 Kinetic US-Frostmane
41 28 May 2012 01:05 25.82M 394562.1 Sacred Vow US-Sargeras
42 21 Jul 2012 01:05 25.79M 393992.5 Бич с ЧШ EU-Король-лич
43 03 Aug 2012 01:05 25.80M 394233.2 Créatures, Evenom & Exhorder's Logs EU-Ysondre
44 28 Mar 2012 01:05 25.82M 392730.4 Pillow Fort US-Wildhammer
45 16 Aug 2012 01:05 25.80M 392178.2 Accession EU-Eredar
46 20 Aug 2012 01:05 25.78M 391730.5 Северная Одиссея 2-10 EU-Борейская тундра
47 23 May 2012 01:06 2.05M 30931.2 Fatalis Vis US-Whisperwind
48 21 Mar 2012 01:06 25.82M 389834.4 Invalid Argument EU-Sylvanas
49 09 Aug 2012 01:06 25.94M 388983.1 Avast US-Frostmourne
50 30 Mar 2012 01:06 25.85M 386303.6 ScrubBusters EU-The Maelstrom
51 16 Jul 2012 01:06 25.83M 385698.5 Avalon Tarde EU-Exodar
52 04 Apr 2012 01:07 25.77M 384495.2 Big Deal US-Lothar
53 26 Jun 2012 01:07 25.78M 384391.2 Iowen Logs EU-Гордунни
54 26 Jul 2012 01:07 25.78M 383813.3 логи дяди Няши EU-Гордунни
55 09 Apr 2012 01:07 25.82M 383128.4 Prophets EU-Garona
56 11 Mar 2012 01:07 25.79M 382594.6 Jinx EU-Dalaran
57 11 Jun 2012 01:07 25.79M 380214.8 Магнум EU-Гордунни
58 25 Jul 2012 01:07 25.80M 380290.0 Myth EU-Blackmoore
59 10 Apr 2012 01:07 25.76M 379788.7 Entensity US-Stormscale
60 03 Jul 2012 01:08 25.79M 378076.4 The Feral Aggressors US-Bronzebeard
61 18 Jul 2012 01:08 25.84M 378227.5 Myth EU-Blackmoore
62 25 Jun 2012 01:08 25.80M 377318.4 Sacred Vow US-Sargeras
63 21 Aug 2012 01:08 25.78M 375744.0 Insight US-Sargeras
64 08 Jul 2012 01:08 25.79M 374496.2 Steinis-Petshop EU-Alleria
65 12 Mar 2012 01:08 25.75M 373354.7 Compromise EU-Silvermoon
66 11 Mar 2012 01:09 25.78M 371646.0 Созвездие EU-Вечная Песня
67 08 May 2012 01:09 25.79M 371190.3 Tears of Abaddon 2T EU-Eredar
68 23 Aug 2012 01:09 25.78M 369889.3 Справедливые EU-Термоштепсель
69 02 May 2012 01:09 25.84M 369695.9 Beyond Exceptional EU-Frostwhisper
70 05 Nov 2011 01:09 25.80M 368577.6 EG GDKP US-Illidan
71 26 Jul 2012 01:09 25.79M 368423.0 Post Mortem US-Kilrogg
72 24 May 2012 01:10 25.83M 367918.9 Avalon Tarde EU-Exodar
73 04 Feb 2012 01:10 25.79M 366634.5 Echoes events EU-Laughing Skull
74 15 Jul 2012 01:10 25.77M 365166.2 Silvermoon Pug EU-Silvermoon
75 08 Jun 2012 01:10 25.81M 364377.2 Фаэтон EU-Ясеневый лес
76 28 Dec 2011 01:11 25.84M 363532.2 Pinkspear Tribe EU-Stormscale
77 11 Jun 2012 01:11 3.68M 51748.2 deVon EU-Blackrock
78 14 May 2012 01:11 25.77M 361800.9 Milmarien log's EU-Гордунни
79 27 Nov 2011 01:11 25.78M 361740.9 organised confusion EU-Anetheron
80 14 May 2012 01:11 25.77M 361030.4 РусЛегион EU-Гордунни
81 25 Jun 2012 01:11 25.81M 361364.0 Северная Одиссея 3-10 EU-Борейская тундра
82 28 Jun 2012 01:11 25.81M 359449.1 Inixia US-Barthilas
83 28 Mar 2012 01:11 25.84M 359760.5 Method US-Dragonmaw
84 30 May 2012 01:11 25.82M 359188.3 Сов EU-Гордунни
85 19 Jul 2012 01:12 25.77M 357340.4 Северная Одиссея 2-10 EU-Борейская тундра
86 01 May 2012 01:12 25.80M 357264.6 Tears of Abaddon 2T EU-Eredar
87 22 Jul 2012 01:12 25.84M 357788.9 Gardh en Teliad - Chrischs SG EU-Kel'Thuzad
88 12 Jul 2012 01:12 25.82M 357588.1 Immota Fides EU-Forscherliga
89 20 Jun 2012 01:12 25.83M 357614.5 Имя говорит само за себя EU-Гордунни
90 21 Mar 2012 01:12 25.78M 356924.6 Андэграунд EU-Свежеватель Душ
91 23 May 2012 01:12 25.82M 357421.9 ice-nil EU-Malfurion
92 05 Apr 2012 01:12 25.86M 357791.2 Беллум EU-Ревущий фьорд
93 15 Mar 2012 01:12 25.79M 356062.4 Созвездие EU-Вечная Песня
94 16 Jul 2012 01:12 25.81M 356175.3 Sacred Vow US-Sargeras
95 16 Jul 2012 01:12 25.81M 356111.4 Bahgzzzzz US-Eredar
96 26 Jul 2012 01:12 25.79M 355675.1 rassvet warlock EU-Пиратская бухта
97 29 Jul 2012 01:12 25.80M 355811.0 I overrated I EU-Eredar
98 09 Aug 2012 01:12 25.78M 355082.9 The Church US-Darkspear
99 04 Jun 2012 01:12 3.98M 54648.9 Shift US-Dath'Remar
100 12 Jul 2012 01:12 25.85M 354399.9 Северная Одиссея 2-10 EU-Борейская тундра

Please do not close the page with the ad you want to report.

I've posted a guide on how to report misbehaving ads on the forum. Please follow the instructions and help make the internet a safer place. Thanks for you time.